sensor_id;sensor_type;location;lat;lon;timestamp;temperature;humidity
52189;DHT22;38162;45.926;13.608;2022-09-17T00:01:32;17.70;90.60
52189;DHT22;38162;45.926;13.608;2022-09-17T00:03:59;17.70;90.50
52189;DHT22;38162;45.926;13.608;2022-09-17T00:06:29;17.70;90.60
52189;DHT22;38162;45.926;13.608;2022-09-17T00:08:55;17.70;90.70
52189;DHT22;38162;45.926;13.608;2022-09-17T00:11:22;17.70;90.80
52189;DHT22;38162;45.926;13.608;2022-09-17T00:13:49;17.70;90.80
52189;DHT22;38162;45.926;13.608;2022-09-17T00:16:31;17.70;90.90
52189;DHT22;38162;45.926;13.608;2022-09-17T00:18:57;17.70;90.90
52189;DHT22;38162;45.926;13.608;2022-09-17T00:21:24;17.70;90.90
52189;DHT22;38162;45.926;13.608;2022-09-17T00:23:59;17.70;90.90
52189;DHT22;38162;45.926;13.608;2022-09-17T00:26:26;17.70;90.80
52189;DHT22;38162;45.926;13.608;2022-09-17T00:28:53;17.70;90.90
52189;DHT22;38162;45.926;13.608;2022-09-17T00:31:21;17.70;90.60
52189;DHT22;38162;45.926;13.608;2022-09-17T00:33:47;17.70;90.60
52189;DHT22;38162;45.926;13.608;2022-09-17T00:36:13;17.60;90.40
52189;DHT22;38162;45.926;13.608;2022-09-17T00:38:39;17.60;89.90
52189;DHT22;38162;45.926;13.608;2022-09-17T00:41:05;17.60;88.30
52189;DHT22;38162;45.926;13.608;2022-09-17T00:43:53;17.60;86.70
52189;DHT22;38162;45.926;13.608;2022-09-17T00:46:40;17.60;85.10
52189;DHT22;38162;45.926;13.608;2022-09-17T00:49:22;17.60;84.20
52189;DHT22;38162;45.926;13.608;2022-09-17T00:52:05;17.60;84.40
52189;DHT22;38162;45.926;13.608;2022-09-17T00:54:34;17.60;83.70
52189;DHT22;38162;45.926;13.608;2022-09-17T00:57:01;17.50;82.60
52189;DHT22;38162;45.926;13.608;2022-09-17T00:59:27;17.50;83.00
52189;DHT22;38162;45.926;13.608;2022-09-17T01:01:53;17.50;83.40
52189;DHT22;38162;45.926;13.608;2022-09-17T01:04:22;17.50;83.60
52189;DHT22;38162;45.926;13.608;2022-09-17T01:10:19;17.50;83.90
52189;DHT22;38162;45.926;13.608;2022-09-17T01:13:15;17.50;84.50
52189;DHT22;38162;45.926;13.608;2022-09-17T01:15:58;17.50;84.50
52189;DHT22;38162;45.926;13.608;2022-09-17T01:21:36;17.50;82.90
52189;DHT22;38162;45.926;13.608;2022-09-17T01:32:02;17.50;84.10
52189;DHT22;38162;45.926;13.608;2022-09-17T01:34:43;17.50;84.30
52189;DHT22;38162;45.926;13.608;2022-09-17T01:37:14;17.40;84.50
52189;DHT22;38162;45.926;13.608;2022-09-17T01:45:22;17.40;76.40
52189;DHT22;38162;45.926;13.608;2022-09-17T01:48:02;17.40;75.80
52189;DHT22;38162;45.926;13.608;2022-09-17T01:50:48;17.40;75.70
52189;DHT22;38162;45.926;13.608;2022-09-17T01:53:16;17.40;75.80
52189;DHT22;38162;45.926;13.608;2022-09-17T01:55:44;17.40;76.40
52189;DHT22;38162;45.926;13.608;2022-09-17T01:58:16;17.40;76.90
52189;DHT22;38162;45.926;13.608;2022-09-17T02:00:48;17.40;77.80
52189;DHT22;38162;45.926;13.608;2022-09-17T02:03:25;17.30;77.60
52189;DHT22;38162;45.926;13.608;2022-09-17T02:08:27;17.30;79.20
52189;DHT22;38162;45.926;13.608;2022-09-17T02:11:17;17.30;79.40
52189;DHT22;38162;45.926;13.608;2022-09-17T02:16:35;17.30;76.50
52189;DHT22;38162;45.926;13.608;2022-09-17T02:19:14;17.30;78.50
52189;DHT22;38162;45.926;13.608;2022-09-17T02:22:01;17.20;77.90
52189;DHT22;38162;45.926;13.608;2022-09-17T02:24:32;17.20;78.30
52189;DHT22;38162;45.926;13.608;2022-09-17T02:27:18;17.20;80.00
52189;DHT22;38162;45.926;13.608;2022-09-17T02:29:46;17.10;80.40
52189;DHT22;38162;45.926;13.608;2022-09-17T02:32:12;17.10;81.40
52189;DHT22;38162;45.926;13.608;2022-09-17T02:34:38;17.00;81.60
52189;DHT22;38162;45.926;13.608;2022-09-17T02:37:05;17.00;81.40
52189;DHT22;38162;45.926;13.608;2022-09-17T02:39:32;17.00;80.90
52189;DHT22;38162;45.926;13.608;2022-09-17T02:50:47;16.90;81.20
52189;DHT22;38162;45.926;13.608;2022-09-17T02:53:28;16.90;81.20
52189;DHT22;38162;45.926;13.608;2022-09-17T02:56:06;16.90;80.50
52189;DHT22;38162;45.926;13.608;2022-09-17T02:58:44;16.90;80.20
52189;DHT22;38162;45.926;13.608;2022-09-17T03:01:22;16.80;81.00
52189;DHT22;38162;45.926;13.608;2022-09-17T03:03:50;16.80;82.10
52189;DHT22;38162;45.926;13.608;2022-09-17T03:06:17;16.80;82.50
52189;DHT22;38162;45.926;13.608;2022-09-17T03:08:44;16.80;82.50
52189;DHT22;38162;45.926;13.608;2022-09-17T03:11:12;16.80;83.60
52189;DHT22;38162;45.926;13.608;2022-09-17T03:13:38;16.70;83.50
52189;DHT22;38162;45.926;13.608;2022-09-17T03:16:04;16.70;84.00
52189;DHT22;38162;45.926;13.608;2022-09-17T03:18:30;16.70;84.40
52189;DHT22;38162;45.926;13.608;2022-09-17T03:20:56;16.70;84.80
52189;DHT22;38162;45.926;13.608;2022-09-17T03:23:22;16.60;84.90
52189;DHT22;38162;45.926;13.608;2022-09-17T03:25:47;16.70;85.60
52189;DHT22;38162;45.926;13.608;2022-09-17T03:28:14;16.70;86.30
52189;DHT22;38162;45.926;13.608;2022-09-17T03:30:45;16.70;86.50
52189;DHT22;38162;45.926;13.608;2022-09-17T03:33:10;16.70;86.60
52189;DHT22;38162;45.926;13.608;2022-09-17T03:35:36;16.70;86.40
52189;DHT22;38162;45.926;13.608;2022-09-17T03:38:02;16.70;85.90
52189;DHT22;38162;45.926;13.608;2022-09-17T03:40:28;16.70;84.20
52189;DHT22;38162;45.926;13.608;2022-09-17T03:42:54;16.70;84.50
52189;DHT22;38162;45.926;13.608;2022-09-17T03:45:20;16.60;85.20
52189;DHT22;38162;45.926;13.608;2022-09-17T03:47:46;16.60;85.00
52189;DHT22;38162;45.926;13.608;2022-09-17T03:50:12;16.60;85.50
52189;DHT22;38162;45.926;13.608;2022-09-17T03:52:37;16.60;85.10
52189;DHT22;38162;45.926;13.608;2022-09-17T03:55:03;16.60;84.40
52189;DHT22;38162;45.926;13.608;2022-09-17T03:57:29;16.50;85.00
52189;DHT22;38162;45.926;13.608;2022-09-17T03:59:55;16.50;83.60
52189;DHT22;38162;45.926;13.608;2022-09-17T04:02:20;16.50;83.00
52189;DHT22;38162;45.926;13.608;2022-09-17T04:04:46;16.50;83.20
52189;DHT22;38162;45.926;13.608;2022-09-17T04:07:11;16.50;83.40
52189;DHT22;38162;45.926;13.608;2022-09-17T04:09:37;16.40;84.10
52189;DHT22;38162;45.926;13.608;2022-09-17T04:12:03;16.40;84.40
52189;DHT22;38162;45.926;13.608;2022-09-17T04:14:28;16.40;85.00
52189;DHT22;38162;45.926;13.608;2022-09-17T04:16:54;16.40;85.30
52189;DHT22;38162;45.926;13.608;2022-09-17T04:19:20;16.40;85.40
52189;DHT22;38162;45.926;13.608;2022-09-17T04:21:45;16.40;85.40
52189;DHT22;38162;45.926;13.608;2022-09-17T04:24:11;16.30;84.90
52189;DHT22;38162;45.926;13.608;2022-09-17T04:26:37;16.30;85.00
52189;DHT22;38162;45.926;13.608;2022-09-17T04:29:02;16.30;85.90
52189;DHT22;38162;45.926;13.608;2022-09-17T04:31:28;16.30;85.60
52189;DHT22;38162;45.926;13.608;2022-09-17T04:33:54;16.30;84.40
52189;DHT22;38162;45.926;13.608;2022-09-17T04:36:20;16.20;84.30
52189;DHT22;38162;45.926;13.608;2022-09-17T04:38:49;16.20;83.60
52189;DHT22;38162;45.926;13.608;2022-09-17T04:41:15;16.20;84.50
52189;DHT22;38162;45.926;13.608;2022-09-17T04:43:41;16.10;84.20
52189;DHT22;38162;45.926;13.608;2022-09-17T04:46:06;16.10;82.20
52189;DHT22;38162;45.926;13.608;2022-09-17T04:48:32;16.10;81.10
52189;DHT22;38162;45.926;13.608;2022-09-17T04:50:58;16.10;80.80
52189;DHT22;38162;45.926;13.608;2022-09-17T04:53:23;16.00;82.10
52189;DHT22;38162;45.926;13.608;2022-09-17T04:55:49;16.00;83.40
52189;DHT22;38162;45.926;13.608;2022-09-17T04:58:15;16.00;84.50
52189;DHT22;38162;45.926;13.608;2022-09-17T05:00:40;15.90;85.10
52189;DHT22;38162;45.926;13.608;2022-09-17T05:03:07;15.90;85.60
52189;DHT22;38162;45.926;13.608;2022-09-17T05:05:33;15.90;84.60
52189;DHT22;38162;45.926;13.608;2022-09-17T05:07:58;15.90;84.30
52189;DHT22;38162;45.926;13.608;2022-09-17T05:10:24;15.90;85.10
52189;DHT22;38162;45.926;13.608;2022-09-17T05:12:52;15.90;85.90
52189;DHT22;38162;45.926;13.608;2022-09-17T05:15:19;15.80;86.20
52189;DHT22;38162;45.926;13.608;2022-09-17T05:17:45;15.80;86.60
52189;DHT22;38162;45.926;13.608;2022-09-17T05:20:12;15.80;87.20
52189;DHT22;38162;45.926;13.608;2022-09-17T05:22:47;15.80;87.10
52189;DHT22;38162;45.926;13.608;2022-09-17T05:25:14;15.80;87.10
52189;DHT22;38162;45.926;13.608;2022-09-17T05:27:40;15.80;85.30
52189;DHT22;38162;45.926;13.608;2022-09-17T05:30:07;15.80;84.70
52189;DHT22;38162;45.926;13.608;2022-09-17T05:32:33;15.70;84.20
52189;DHT22;38162;45.926;13.608;2022-09-17T05:34:59;15.70;84.10
52189;DHT22;38162;45.926;13.608;2022-09-17T05:37:25;15.70;84.20
52189;DHT22;38162;45.926;13.608;2022-09-17T05:39:51;15.70;83.50
52189;DHT22;38162;45.926;13.608;2022-09-17T05:42:17;15.60;83.60
52189;DHT22;38162;45.926;13.608;2022-09-17T05:44:42;15.60;83.30
52189;DHT22;38162;45.926;13.608;2022-09-17T05:47:08;15.60;83.80
52189;DHT22;38162;45.926;13.608;2022-09-17T05:49:34;15.60;84.60
52189;DHT22;38162;45.926;13.608;2022-09-17T05:52:00;15.60;85.00
52189;DHT22;38162;45.926;13.608;2022-09-17T05:54:26;15.60;84.60
52189;DHT22;38162;45.926;13.608;2022-09-17T05:56:52;15.50;85.40
52189;DHT22;38162;45.926;13.608;2022-09-17T05:59:18;15.60;86.40
52189;DHT22;38162;45.926;13.608;2022-09-17T06:01:44;15.60;87.00
52189;DHT22;38162;45.926;13.608;2022-09-17T06:04:10;15.50;86.80
52189;DHT22;38162;45.926;13.608;2022-09-17T06:06:36;15.50;87.40
52189;DHT22;38162;45.926;13.608;2022-09-17T06:09:04;15.50;87.00
52189;DHT22;38162;45.926;13.608;2022-09-17T06:11:30;15.50;86.60
52189;DHT22;38162;45.926;13.608;2022-09-17T06:13:56;15.50;86.40
52189;DHT22;38162;45.926;13.608;2022-09-17T06:16:22;15.50;87.10
52189;DHT22;38162;45.926;13.608;2022-09-17T06:18:48;15.50;86.70
52189;DHT22;38162;45.926;13.608;2022-09-17T06:21:15;15.50;86.30
52189;DHT22;38162;45.926;13.608;2022-09-17T06:23:42;15.50;85.40
52189;DHT22;38162;45.926;13.608;2022-09-17T06:26:08;15.40;84.30
52189;DHT22;38162;45.926;13.608;2022-09-17T06:28:34;15.50;84.90
52189;DHT22;38162;45.926;13.608;2022-09-17T06:31:01;15.40;84.70
52189;DHT22;38162;45.926;13.608;2022-09-17T06:33:27;15.40;85.60
52189;DHT22;38162;45.926;13.608;2022-09-17T06:36:02;15.40;86.30
52189;DHT22;38162;45.926;13.608;2022-09-17T06:38:31;15.40;86.70
52189;DHT22;38162;45.926;13.608;2022-09-17T06:40:57;15.40;87.10
52189;DHT22;38162;45.926;13.608;2022-09-17T06:43:23;15.40;87.40
52189;DHT22;38162;45.926;13.608;2022-09-17T06:45:53;15.40;86.40
52189;DHT22;38162;45.926;13.608;2022-09-17T06:48:20;15.40;87.00
52189;DHT22;38162;45.926;13.608;2022-09-17T06:50:46;15.30;86.30
52189;DHT22;38162;45.926;13.608;2022-09-17T06:53:11;15.30;85.30
52189;DHT22;38162;45.926;13.608;2022-09-17T06:55:37;15.40;84.90
52189;DHT22;38162;45.926;13.608;2022-09-17T06:58:03;15.40;85.70
52189;DHT22;38162;45.926;13.608;2022-09-17T07:00:28;15.30;86.40
52189;DHT22;38162;45.926;13.608;2022-09-17T07:02:58;15.40;86.50
52189;DHT22;38162;45.926;13.608;2022-09-17T07:05:26;15.40;86.80
52189;DHT22;38162;45.926;13.608;2022-09-17T07:07:52;15.30;86.90
52189;DHT22;38162;45.926;13.608;2022-09-17T07:10:18;15.40;87.20
52189;DHT22;38162;45.926;13.608;2022-09-17T07:12:44;15.40;87.30
52189;DHT22;38162;45.926;13.608;2022-09-17T07:15:10;15.30;87.50
52189;DHT22;38162;45.926;13.608;2022-09-17T07:17:37;15.30;87.40
52189;DHT22;38162;45.926;13.608;2022-09-17T07:20:06;15.30;87.00
52189;DHT22;38162;45.926;13.608;2022-09-17T07:22:33;15.30;86.80
52189;DHT22;38162;45.926;13.608;2022-09-17T07:24:58;15.30;87.30
52189;DHT22;38162;45.926;13.608;2022-09-17T07:27:26;15.30;87.90
52189;DHT22;38162;45.926;13.608;2022-09-17T07:29:53;15.30;88.20
52189;DHT22;38162;45.926;13.608;2022-09-17T07:32:18;15.20;88.40
52189;DHT22;38162;45.926;13.608;2022-09-17T07:34:44;15.30;87.50
52189;DHT22;38162;45.926;13.608;2022-09-17T07:37:09;15.20;86.60
52189;DHT22;38162;45.926;13.608;2022-09-17T07:39:35;15.20;87.00
52189;DHT22;38162;45.926;13.608;2022-09-17T07:42:01;15.20;87.00
52189;DHT22;38162;45.926;13.608;2022-09-17T07:44:29;15.10;87.70
52189;DHT22;38162;45.926;13.608;2022-09-17T07:46:54;15.10;88.30
52189;DHT22;38162;45.926;13.608;2022-09-17T07:49:20;15.10;88.40
52189;DHT22;38162;45.926;13.608;2022-09-17T07:51:46;15.10;88.30
52189;DHT22;38162;45.926;13.608;2022-09-17T07:54:11;15.10;88.20
52189;DHT22;38162;45.926;13.608;2022-09-17T07:56:37;15.00;87.90
52189;DHT22;38162;45.926;13.608;2022-09-17T07:59:03;15.10;87.50
52189;DHT22;38162;45.926;13.608;2022-09-17T08:01:31;15.10;87.00
52189;DHT22;38162;45.926;13.608;2022-09-17T08:03:58;15.00;87.00
52189;DHT22;38162;45.926;13.608;2022-09-17T08:06:25;15.00;87.30
52189;DHT22;38162;45.926;13.608;2022-09-17T08:08:56;15.00;87.00
52189;DHT22;38162;45.926;13.608;2022-09-17T08:11:24;15.00;86.70
52189;DHT22;38162;45.926;13.608;2022-09-17T08:13:51;15.00;86.40
52189;DHT22;38162;45.926;13.608;2022-09-17T08:16:18;14.90;86.00
52189;DHT22;38162;45.926;13.608;2022-09-17T08:18:44;14.90;86.70
52189;DHT22;38162;45.926;13.608;2022-09-17T08:21:12;14.90;87.50
52189;DHT22;38162;45.926;13.608;2022-09-17T08:23:40;14.90;88.20
52189;DHT22;38162;45.926;13.608;2022-09-17T08:26:10;14.90;88.50
52189;DHT22;38162;45.926;13.608;2022-09-17T08:28:37;14.90;88.90
52189;DHT22;38162;45.926;13.608;2022-09-17T08:31:08;14.90;89.00
52189;DHT22;38162;45.926;13.608;2022-09-17T08:33:36;14.90;88.40
52189;DHT22;38162;45.926;13.608;2022-09-17T08:36:02;14.90;88.00
52189;DHT22;38162;45.926;13.608;2022-09-17T08:38:30;14.90;87.70
52189;DHT22;38162;45.926;13.608;2022-09-17T08:46:49;14.80;88.60
52189;DHT22;38162;45.926;13.608;2022-09-17T08:55:25;14.80;87.30
52189;DHT22;38162;45.926;13.608;2022-09-17T09:00:40;14.70;85.90
52189;DHT22;38162;45.926;13.608;2022-09-17T09:06:12;14.70;85.40
52189;DHT22;38162;45.926;13.608;2022-09-17T09:08:53;14.60;84.30
52189;DHT22;38162;45.926;13.608;2022-09-17T09:11:24;14.60;83.40
52189;DHT22;38162;45.926;13.608;2022-09-17T09:13:57;14.50;82.40
52189;DHT22;38162;45.926;13.608;2022-09-17T09:16:27;14.40;82.60
52189;DHT22;38162;45.926;13.608;2022-09-17T09:18:55;14.40;82.80
52189;DHT22;38162;45.926;13.608;2022-09-17T09:21:29;14.40;82.60
52189;DHT22;38162;45.926;13.608;2022-09-17T09:24:04;14.40;83.00
52189;DHT22;38162;45.926;13.608;2022-09-17T09:26:49;14.30;82.20
52189;DHT22;38162;45.926;13.608;2022-09-17T09:29:38;14.20;81.80
52189;DHT22;38162;45.926;13.608;2022-09-17T09:34:36;14.20;82.60
52189;DHT22;38162;45.926;13.608;2022-09-17T09:37:31;14.20;83.70
52189;DHT22;38162;45.926;13.608;2022-09-17T09:42:47;14.20;85.40
52189;DHT22;38162;45.926;13.608;2022-09-17T09:45:38;14.30;85.90
52189;DHT22;38162;45.926;13.608;2022-09-17T09:50:56;14.30;86.40
52189;DHT22;38162;45.926;13.608;2022-09-17T09:56:29;14.30;86.30
52189;DHT22;38162;45.926;13.608;2022-09-17T09:58:55;14.30;86.60
52189;DHT22;38162;45.926;13.608;2022-09-17T10:01:21;14.30;86.40
52189;DHT22;38162;45.926;13.608;2022-09-17T10:03:49;14.30;86.00
52189;DHT22;38162;45.926;13.608;2022-09-17T10:06:17;14.30;86.30
52189;DHT22;38162;45.926;13.608;2022-09-17T10:11:28;14.40;84.60
52189;DHT22;38162;45.926;13.608;2022-09-17T10:14:14;14.30;85.00
52189;DHT22;38162;45.926;13.608;2022-09-17T10:16:40;14.30;86.10
52189;DHT22;38162;45.926;13.608;2022-09-17T10:24:02;14.30;86.70
52189;DHT22;38162;45.926;13.608;2022-09-17T10:26:33;14.20;86.30
52189;DHT22;38162;45.926;13.608;2022-09-17T10:29:03;14.20;85.80
52189;DHT22;38162;45.926;13.608;2022-09-17T10:31:52;14.20;85.70
52189;DHT22;38162;45.926;13.608;2022-09-17T10:34:26;14.20;85.00
52189;DHT22;38162;45.926;13.608;2022-09-17T10:36:54;14.20;84.10
52189;DHT22;38162;45.926;13.608;2022-09-17T10:39:36;14.10;83.50
52189;DHT22;38162;45.926;13.608;2022-09-17T10:44:37;14.10;80.90
52189;DHT22;38162;45.926;13.608;2022-09-17T10:47:20;14.10;81.80
52189;DHT22;38162;45.926;13.608;2022-09-17T10:49:52;14.10;80.90
52189;DHT22;38162;45.926;13.608;2022-09-17T11:00:20;14.00;79.50
52189;DHT22;38162;45.926;13.608;2022-09-17T11:08:43;13.90;81.20
52189;DHT22;38162;45.926;13.608;2022-09-17T11:14:48;13.90;83.00
52189;DHT22;38162;45.926;13.608;2022-09-17T11:31:36;13.90;85.50
52189;DHT22;38162;45.926;13.608;2022-09-17T11:36:55;14.00;86.30
52189;DHT22;38162;45.926;13.608;2022-09-17T11:42:06;14.00;86.90
52189;DHT22;38162;45.926;13.608;2022-09-17T11:44:40;14.00;87.30
52189;DHT22;38162;45.926;13.608;2022-09-17T11:47:35;14.10;87.00
52189;DHT22;38162;45.926;13.608;2022-09-17T11:50:20;14.10;86.70
52189;DHT22;38162;45.926;13.608;2022-09-17T11:53:10;14.10;85.00
52189;DHT22;38162;45.926;13.608;2022-09-17T11:55:45;14.10;84.00
52189;DHT22;38162;45.926;13.608;2022-09-17T12:01:04;14.10;84.10
52189;DHT22;38162;45.926;13.608;2022-09-17T12:03:35;14.10;84.70
52189;DHT22;38162;45.926;13.608;2022-09-17T12:06:08;14.10;82.50
52189;DHT22;38162;45.926;13.608;2022-09-17T12:08:57;14.10;82.20
52189;DHT22;38162;45.926;13.608;2022-09-17T12:11:32;14.10;82.20
52189;DHT22;38162;45.926;13.608;2022-09-17T12:14:10;14.10;82.90
52189;DHT22;38162;45.926;13.608;2022-09-17T12:16:44;14.20;82.40
52189;DHT22;38162;45.926;13.608;2022-09-17T12:21:58;14.20;84.60
52189;DHT22;38162;45.926;13.608;2022-09-17T12:24:30;14.30;85.00
52189;DHT22;38162;45.926;13.608;2022-09-17T12:51:54;14.50;87.20
52189;DHT22;38162;45.926;13.608;2022-09-17T12:57:08;14.60;87.90
52189;DHT22;38162;45.926;13.608;2022-09-17T12:59:47;14.70;88.00
52189;DHT22;38162;45.926;13.608;2022-09-17T13:02:21;14.70;87.90
52189;DHT22;38162;45.926;13.608;2022-09-17T13:17:06;15.40;85.10
52189;DHT22;38162;45.926;13.608;2022-09-17T13:19:41;15.50;83.90
52189;DHT22;38162;45.926;13.608;2022-09-17T13:22:19;15.50;82.90
52189;DHT22;38162;45.926;13.608;2022-09-17T13:24:46;15.60;82.60
52189;DHT22;38162;45.926;13.608;2022-09-17T13:27:25;15.60;82.20
52189;DHT22;38162;45.926;13.608;2022-09-17T13:40:05;16.00;80.00
52189;DHT22;38162;45.926;13.608;2022-09-17T13:42:49;16.10;80.10
52189;DHT22;38162;45.926;13.608;2022-09-17T13:45:17;16.20;79.50
52189;DHT22;38162;45.926;13.608;2022-09-17T13:50:34;16.50;76.50
52189;DHT22;38162;45.926;13.608;2022-09-17T13:53:16;16.60;75.60
52189;DHT22;38162;45.926;13.608;2022-09-17T13:55:52;16.80;75.50
52189;DHT22;38162;45.926;13.608;2022-09-17T14:01:10;17.10;73.10
52189;DHT22;38162;45.926;13.608;2022-09-17T14:16:47;17.60;70.70
52189;DHT22;38162;45.926;13.608;2022-09-17T14:21:41;17.70;69.10
52189;DHT22;38162;45.926;13.608;2022-09-17T14:30:31;17.70;66.10
52189;DHT22;38162;45.926;13.608;2022-09-17T14:32:43;17.70;67.20
52189;DHT22;38162;45.926;13.608;2022-09-17T14:35:15;17.70;64.70
52189;DHT22;38162;45.926;13.608;2022-09-17T14:37:42;17.70;65.10
52189;DHT22;38162;45.926;13.608;2022-09-17T14:40:10;17.80;65.00
52189;DHT22;38162;45.926;13.608;2022-09-17T14:42:38;17.80;64.20
52189;DHT22;38162;45.926;13.608;2022-09-17T14:45:15;17.80;65.90
52189;DHT22;38162;45.926;13.608;2022-09-17T14:47:41;17.80;65.50
52189;DHT22;38162;45.926;13.608;2022-09-17T14:50:25;17.80;66.20
52189;DHT22;38162;45.926;13.608;2022-09-17T14:52:54;17.80;66.70
52189;DHT22;38162;45.926;13.608;2022-09-17T14:55:24;17.70;64.90
52189;DHT22;38162;45.926;13.608;2022-09-17T14:57:56;17.60;65.50
52189;DHT22;38162;45.926;13.608;2022-09-17T15:00:24;17.50;66.40
52189;DHT22;38162;45.926;13.608;2022-09-17T15:02:54;17.50;67.60
52189;DHT22;38162;45.926;13.608;2022-09-17T15:05:24;17.50;66.70
52189;DHT22;38162;45.926;13.608;2022-09-17T15:10:33;17.50;67.70
52189;DHT22;38162;45.926;13.608;2022-09-17T15:13:00;17.60;68.30
52189;DHT22;38162;45.926;13.608;2022-09-17T15:15:26;17.60;68.60
52189;DHT22;38162;45.926;13.608;2022-09-17T15:17:53;17.60;68.40
52189;DHT22;38162;45.926;13.608;2022-09-17T15:20:22;17.60;69.30
52189;DHT22;38162;45.926;13.608;2022-09-17T15:23:19;17.60;70.30
52189;DHT22;38162;45.926;13.608;2022-09-17T15:25:49;17.60;70.20
52189;DHT22;38162;45.926;13.608;2022-09-17T15:28:33;17.60;70.60
52189;DHT22;38162;45.926;13.608;2022-09-17T15:31:01;17.60;71.30
52189;DHT22;38162;45.926;13.608;2022-09-17T15:33:28;17.60;70.60
52189;DHT22;38162;45.926;13.608;2022-09-17T15:38:39;17.50;69.90
52189;DHT22;38162;45.926;13.608;2022-09-17T15:41:32;17.40;69.40
52189;DHT22;38162;45.926;13.608;2022-09-17T15:44:18;17.40;69.20
52189;DHT22;38162;45.926;13.608;2022-09-17T15:46:45;17.40;69.30
52189;DHT22;38162;45.926;13.608;2022-09-17T15:49:33;17.30;70.30
52189;DHT22;38162;45.926;13.608;2022-09-17T15:54:50;17.20;69.50
52189;DHT22;38162;45.926;13.608;2022-09-17T15:57:16;17.10;69.90
52189;DHT22;38162;45.926;13.608;2022-09-17T15:59:42;17.10;70.20
52189;DHT22;38162;45.926;13.608;2022-09-17T16:02:25;17.10;69.80
52189;DHT22;38162;45.926;13.608;2022-09-17T16:07:44;17.00;70.00
52189;DHT22;38162;45.926;13.608;2022-09-17T16:10:11;16.90;70.10
52189;DHT22;38162;45.926;13.608;2022-09-17T16:12:37;16.90;70.60
52189;DHT22;38162;45.926;13.608;2022-09-17T16:15:04;16.80;70.80
52189;DHT22;38162;45.926;13.608;2022-09-17T16:17:39;16.80;70.70
52189;DHT22;38162;45.926;13.608;2022-09-17T16:20:21;16.70;70.20
52189;DHT22;38162;45.926;13.608;2022-09-17T16:22:51;16.70;70.60
52189;DHT22;38162;45.926;13.608;2022-09-17T16:25:19;16.60;70.90
52189;DHT22;38162;45.926;13.608;2022-09-17T16:30:17;16.60;71.80
52189;DHT22;38162;45.926;13.608;2022-09-17T16:32:43;16.50;72.20
52189;DHT22;38162;45.926;13.608;2022-09-17T16:35:17;16.50;72.60
52189;DHT22;38162;45.926;13.608;2022-09-17T16:37:47;16.40;72.80
52189;DHT22;38162;45.926;13.608;2022-09-17T16:40:13;16.40;73.00
52189;DHT22;38162;45.926;13.608;2022-09-17T16:42:39;16.30;73.40
52189;DHT22;38162;45.926;13.608;2022-09-17T16:45:05;16.30;74.00
52189;DHT22;38162;45.926;13.608;2022-09-17T16:47:39;16.30;74.60
52189;DHT22;38162;45.926;13.608;2022-09-17T16:50:13;16.30;74.90
52189;DHT22;38162;45.926;13.608;2022-09-17T16:52:39;16.30;75.50
52189;DHT22;38162;45.926;13.608;2022-09-17T16:55:06;16.30;76.70
52189;DHT22;38162;45.926;13.608;2022-09-17T16:57:33;16.30;77.10
52189;DHT22;38162;45.926;13.608;2022-09-17T16:59:59;16.30;77.40
52189;DHT22;38162;45.926;13.608;2022-09-17T17:02:25;16.20;77.70
52189;DHT22;38162;45.926;13.608;2022-09-17T17:04:50;16.20;78.10
52189;DHT22;38162;45.926;13.608;2022-09-17T17:07:16;16.20;78.20
52189;DHT22;38162;45.926;13.608;2022-09-17T17:09:42;16.20;78.30
52189;DHT22;38162;45.926;13.608;2022-09-17T17:12:08;16.10;78.30
52189;DHT22;38162;45.926;13.608;2022-09-17T17:14:33;16.10;78.40
52189;DHT22;38162;45.926;13.608;2022-09-17T17:16:59;16.10;78.30
52189;DHT22;38162;45.926;13.608;2022-09-17T17:19:25;16.10;78.40
52189;DHT22;38162;45.926;13.608;2022-09-17T17:21:52;16.00;78.60
52189;DHT22;38162;45.926;13.608;2022-09-17T17:24:18;16.00;78.70
52189;DHT22;38162;45.926;13.608;2022-09-17T17:26:46;16.00;78.90
52189;DHT22;38162;45.926;13.608;2022-09-17T17:29:12;16.00;79.00
52189;DHT22;38162;45.926;13.608;2022-09-17T17:31:39;16.00;79.00
52189;DHT22;38162;45.926;13.608;2022-09-17T17:34:05;15.90;79.00
52189;DHT22;38162;45.926;13.608;2022-09-17T17:36:32;15.90;79.30
52189;DHT22;38162;45.926;13.608;2022-09-17T17:38:59;15.90;79.60
52189;DHT22;38162;45.926;13.608;2022-09-17T17:41:25;15.80;79.80
52189;DHT22;38162;45.926;13.608;2022-09-17T17:43:55;15.90;79.90
52189;DHT22;38162;45.926;13.608;2022-09-17T17:46:22;15.80;80.00
52189;DHT22;38162;45.926;13.608;2022-09-17T17:48:49;15.80;80.10
52189;DHT22;38162;45.926;13.608;2022-09-17T17:51:14;15.80;80.30
52189;DHT22;38162;45.926;13.608;2022-09-17T17:53:43;15.70;80.40
52189;DHT22;38162;45.926;13.608;2022-09-17T17:56:10;15.80;80.60
52189;DHT22;38162;45.926;13.608;2022-09-17T17:58:36;15.70;81.20
52189;DHT22;38162;45.926;13.608;2022-09-17T18:01:14;15.70;81.50
52189;DHT22;38162;45.926;13.608;2022-09-17T18:03:40;15.70;82.20
52189;DHT22;38162;45.926;13.608;2022-09-17T18:06:06;15.70;82.60
52189;DHT22;38162;45.926;13.608;2022-09-17T18:08:34;15.70;82.80
52189;DHT22;38162;45.926;13.608;2022-09-17T18:11:01;15.60;82.80
52189;DHT22;38162;45.926;13.608;2022-09-17T18:13:30;15.60;82.70
52189;DHT22;38162;45.926;13.608;2022-09-17T18:15:58;15.60;82.70
52189;DHT22;38162;45.926;13.608;2022-09-17T18:18:33;15.60;82.80
52189;DHT22;38162;45.926;13.608;2022-09-17T18:21:05;15.70;82.70
52189;DHT22;38162;45.926;13.608;2022-09-17T18:23:33;15.70;82.70
52189;DHT22;38162;45.926;13.608;2022-09-17T18:26:00;15.70;82.80
52189;DHT22;38162;45.926;13.608;2022-09-17T18:28:28;15.70;82.80
52189;DHT22;38162;45.926;13.608;2022-09-17T18:30:55;15.70;82.70
52189;DHT22;38162;45.926;13.608;2022-09-17T18:33:25;15.70;82.50
52189;DHT22;38162;45.926;13.608;2022-09-17T18:35:52;15.70;82.50
52189;DHT22;38162;45.926;13.608;2022-09-17T18:38:22;15.70;82.50
52189;DHT22;38162;45.926;13.608;2022-09-17T18:40:48;15.70;82.60
52189;DHT22;38162;45.926;13.608;2022-09-17T18:43:14;15.70;82.60
52189;DHT22;38162;45.926;13.608;2022-09-17T18:45:40;15.70;82.80
52189;DHT22;38162;45.926;13.608;2022-09-17T18:48:07;15.70;82.90
52189;DHT22;38162;45.926;13.608;2022-09-17T18:50:33;15.70;82.90
52189;DHT22;38162;45.926;13.608;2022-09-17T18:53:00;15.70;83.00
52189;DHT22;38162;45.926;13.608;2022-09-17T18:55:26;15.70;83.20
52189;DHT22;38162;45.926;13.608;2022-09-17T18:57:53;15.70;83.20